sensor_id;sensor_type;location;lat;lon;timestamp;P1;durP1;ratioP1;P2;durP2;ratioP2
68196;SDS011;55019;49.382;11.358;2023-08-30T00:00:46;2.17;;;1.00;;
68196;SDS011;55019;49.382;11.358;2023-08-30T00:03:12;2.10;;;1.25;;
68196;SDS011;55019;49.382;11.358;2023-08-30T00:05:39;1.40;;;1.30;;
68196;SDS011;55019;49.382;11.358;2023-08-30T00:08:06;1.08;;;1.02;;
68196;SDS011;55019;49.382;11.358;2023-08-30T00:10:32;1.48;;;1.15;;
68196;SDS011;55019;49.382;11.358;2023-08-30T00:12:57;1.55;;;1.13;;
68196;SDS011;55019;49.382;11.358;2023-08-30T00:15:23;2.35;;;1.23;;
68196;SDS011;55019;49.382;11.358;2023-08-30T00:17:49;2.10;;;0.95;;
68196;SDS011;55019;49.382;11.358;2023-08-30T00:20:16;1.50;;;1.00;;
68196;SDS011;55019;49.382;11.358;2023-08-30T00:22:43;1.10;;;0.90;;
68196;SDS011;55019;49.382;11.358;2023-08-30T00:25:08;1.35;;;1.25;;
68196;SDS011;55019;49.382;11.358;2023-08-30T00:27:37;1.83;;;1.10;;
68196;SDS011;55019;49.382;11.358;2023-08-30T00:30:03;1.20;;;1.10;;
68196;SDS011;55019;49.382;11.358;2023-08-30T00:32:30;1.83;;;1.40;;
68196;SDS011;55019;49.382;11.358;2023-08-30T00:34:55;1.45;;;1.35;;
68196;SDS011;55019;49.382;11.358;2023-08-30T00:37:21;1.20;;;1.10;;
68196;SDS011;55019;49.382;11.358;2023-08-30T00:39:47;1.85;;;1.70;;
68196;SDS011;55019;49.382;11.358;2023-08-30T00:42:12;2.50;;;1.40;;
68196;SDS011;55019;49.382;11.358;2023-08-30T00:44:38;2.58;;;1.50;;
68196;SDS011;55019;49.382;11.358;2023-08-30T00:47:04;2.00;;;1.40;;
68196;SDS011;55019;49.382;11.358;2023-08-30T00:49:30;1.67;;;1.35;;
68196;SDS011;55019;49.382;11.358;2023-08-30T00:52:01;2.47;;;1.80;;
68196;SDS011;55019;49.382;11.358;2023-08-30T00:54:28;1.48;;;1.35;;
68196;SDS011;55019;49.382;11.358;2023-08-30T00:56:54;2.90;;;1.38;;
68196;SDS011;55019;49.382;11.358;2023-08-30T00:59:21;1.58;;;1.48;;
68196;SDS011;55019;49.382;11.358;2023-08-30T01:01:48;1.95;;;1.30;;
68196;SDS011;55019;49.382;11.358;2023-08-30T01:04:13;1.58;;;1.40;;
68196;SDS011;55019;49.382;11.358;2023-08-30T01:06:41;2.65;;;1.60;;
68196;SDS011;55019;49.382;11.358;2023-08-30T01:09:09;1.73;;;1.63;;
68196;SDS011;55019;49.382;11.358;2023-08-30T01:14:44;2.15;;;1.80;;
68196;SDS011;55019;49.382;11.358;2023-08-30T01:17:25;2.30;;;1.83;;
68196;SDS011;55019;49.382;11.358;2023-08-30T01:25:16;3.45;;;1.80;;
68196;SDS011;55019;49.382;11.358;2023-08-30T01:27:50;2.33;;;1.90;;
68196;SDS011;55019;49.382;11.358;2023-08-30T01:30:20;2.00;;;1.80;;
68196;SDS011;55019;49.382;11.358;2023-08-30T01:32:50;2.15;;;2.05;;
68196;SDS011;55019;49.382;11.358;2023-08-30T01:35:18;2.67;;;2.22;;
68196;SDS011;55019;49.382;11.358;2023-08-30T01:37:46;2.70;;;2.10;;
68196;SDS011;55019;49.382;11.358;2023-08-30T01:40:12;3.00;;;2.58;;
68196;SDS011;55019;49.382;11.358;2023-08-30T01:42:40;2.88;;;2.28;;
68196;SDS011;55019;49.382;11.358;2023-08-30T01:45:10;2.67;;;2.47;;
68196;SDS011;55019;49.382;11.358;2023-08-30T01:47:41;3.35;;;2.30;;
68196;SDS011;55019;49.382;11.358;2023-08-30T01:50:08;2.92;;;2.35;;
68196;SDS011;55019;49.382;11.358;2023-08-30T01:52:36;4.35;;;2.75;;
68196;SDS011;55019;49.382;11.358;2023-08-30T01:55:05;2.83;;;2.53;;
68196;SDS011;55019;49.382;11.358;2023-08-30T01:57:34;3.63;;;3.00;;
68196;SDS011;55019;49.382;11.358;2023-08-30T02:00:01;4.22;;;2.63;;
68196;SDS011;55019;49.382;11.358;2023-08-30T02:02:30;3.28;;;2.75;;
68196;SDS011;55019;49.382;11.358;2023-08-30T02:04:58;3.00;;;2.63;;
68196;SDS011;55019;49.382;11.358;2023-08-30T02:07:42;3.10;;;2.70;;
68196;SDS011;55019;49.382;11.358;2023-08-30T02:10:26;2.65;;;2.45;;
68196;SDS011;55019;49.382;11.358;2023-08-30T02:12:57;3.15;;;2.70;;
68196;SDS011;55019;49.382;11.358;2023-08-30T02:15:25;3.33;;;2.53;;
68196;SDS011;55019;49.382;11.358;2023-08-30T02:17:52;4.53;;;3.20;;
68196;SDS011;55019;49.382;11.358;2023-08-30T02:20:19;3.92;;;2.95;;
68196;SDS011;55019;49.382;11.358;2023-08-30T02:22:46;3.50;;;3.17;;
68196;SDS011;55019;49.382;11.358;2023-08-30T02:25:13;3.50;;;2.92;;
68196;SDS011;55019;49.382;11.358;2023-08-30T02:27:43;4.55;;;2.70;;
68196;SDS011;55019;49.382;11.358;2023-08-30T02:30:15;3.75;;;2.72;;
68196;SDS011;55019;49.382;11.358;2023-08-30T02:32:45;2.92;;;2.63;;
68196;SDS011;55019;49.382;11.358;2023-08-30T02:35:16;4.45;;;2.92;;
68196;SDS011;55019;49.382;11.358;2023-08-30T02:37:42;3.60;;;2.60;;
68196;SDS011;55019;49.382;11.358;2023-08-30T02:40:10;3.67;;;3.03;;
68196;SDS011;55019;49.382;11.358;2023-08-30T02:42:38;3.42;;;3.13;;
68196;SDS011;55019;49.382;11.358;2023-08-30T02:45:09;6.95;;;3.30;;
68196;SDS011;55019;49.382;11.358;2023-08-30T02:47:35;4.57;;;3.13;;
68196;SDS011;55019;49.382;11.358;2023-08-30T02:50:02;3.88;;;2.90;;
68196;SDS011;55019;49.382;11.358;2023-08-30T02:52:33;3.22;;;2.85;;
68196;SDS011;55019;49.382;11.358;2023-08-30T02:54:59;4.22;;;3.17;;
68196;SDS011;55019;49.382;11.358;2023-08-30T02:57:25;4.43;;;2.40;;
68196;SDS011;55019;49.382;11.358;2023-08-30T02:59:51;2.80;;;2.60;;
68196;SDS011;55019;49.382;11.358;2023-08-30T03:02:18;3.00;;;2.70;;
68196;SDS011;55019;49.382;11.358;2023-08-30T03:04:44;2.45;;;2.22;;
68196;SDS011;55019;49.382;11.358;2023-08-30T03:07:10;2.83;;;2.42;;
68196;SDS011;55019;49.382;11.358;2023-08-30T03:09:36;2.70;;;2.25;;
68196;SDS011;55019;49.382;11.358;2023-08-30T03:12:04;2.45;;;2.25;;
68196;SDS011;55019;49.382;11.358;2023-08-30T03:14:32;3.08;;;2.40;;
68196;SDS011;55019;49.382;11.358;2023-08-30T03:16:58;2.72;;;2.47;;
68196;SDS011;55019;49.382;11.358;2023-08-30T03:19:25;3.10;;;2.80;;
68196;SDS011;55019;49.382;11.358;2023-08-30T03:21:50;3.13;;;2.55;;
68196;SDS011;55019;49.382;11.358;2023-08-30T03:24:17;4.30;;;2.50;;
68196;SDS011;55019;49.382;11.358;2023-08-30T03:26:43;3.45;;;2.70;;
68196;SDS011;55019;49.382;11.358;2023-08-30T03:29:10;3.33;;;3.03;;
68196;SDS011;55019;49.382;11.358;2023-08-30T03:31:35;2.65;;;2.20;;
68196;SDS011;55019;49.382;11.358;2023-08-30T03:34:01;2.30;;;2.03;;
68196;SDS011;55019;49.382;11.358;2023-08-30T03:36:28;2.95;;;2.47;;
68196;SDS011;55019;49.382;11.358;2023-08-30T03:38:54;2.42;;;2.22;;
68196;SDS011;55019;49.382;11.358;2023-08-30T03:41:20;3.35;;;3.05;;
68196;SDS011;55019;49.382;11.358;2023-08-30T03:43:45;2.75;;;2.55;;
68196;SDS011;55019;49.382;11.358;2023-08-30T03:46:11;3.95;;;2.72;;
68196;SDS011;55019;49.382;11.358;2023-08-30T03:48:37;3.28;;;2.50;;
68196;SDS011;55019;49.382;11.358;2023-08-30T03:51:03;2.70;;;2.30;;
68196;SDS011;55019;49.382;11.358;2023-08-30T03:53:29;2.92;;;2.65;;
68196;SDS011;55019;49.382;11.358;2023-08-30T03:55:55;3.90;;;2.60;;
68196;SDS011;55019;49.382;11.358;2023-08-30T03:58:23;2.97;;;2.42;;
68196;SDS011;55019;49.382;11.358;2023-08-30T04:00:49;2.58;;;2.38;;
68196;SDS011;55019;49.382;11.358;2023-08-30T04:03:15;3.03;;;2.83;;
68196;SDS011;55019;49.382;11.358;2023-08-30T04:05:42;2.90;;;2.40;;
68196;SDS011;55019;49.382;11.358;2023-08-30T04:08:08;3.60;;;2.75;;
68196;SDS011;55019;49.382;11.358;2023-08-30T04:10:35;2.97;;;2.60;;
68196;SDS011;55019;49.382;11.358;2023-08-30T04:13:04;3.08;;;2.75;;
68196;SDS011;55019;49.382;11.358;2023-08-30T04:15:34;3.35;;;2.60;;
68196;SDS011;55019;49.382;11.358;2023-08-30T04:18:01;2.75;;;2.40;;
68196;SDS011;55019;49.382;11.358;2023-08-30T04:20:27;2.80;;;2.50;;
68196;SDS011;55019;49.382;11.358;2023-08-30T04:22:53;2.63;;;2.42;;
68196;SDS011;55019;49.382;11.358;2023-08-30T04:25:20;3.53;;;2.63;;
68196;SDS011;55019;49.382;11.358;2023-08-30T04:27:46;2.67;;;2.28;;
68196;SDS011;55019;49.382;11.358;2023-08-30T04:30:13;4.93;;;2.50;;
68196;SDS011;55019;49.382;11.358;2023-08-30T04:32:40;2.47;;;2.25;;
68196;SDS011;55019;49.382;11.358;2023-08-30T04:35:06;3.00;;;2.60;;
68196;SDS011;55019;49.382;11.358;2023-08-30T04:37:33;3.28;;;2.97;;
68196;SDS011;55019;49.382;11.358;2023-08-30T04:39:59;3.42;;;3.05;;
68196;SDS011;55019;49.382;11.358;2023-08-30T04:42:25;2.90;;;2.65;;
68196;SDS011;55019;49.382;11.358;2023-08-30T04:44:51;3.28;;;2.97;;
68196;SDS011;55019;49.382;11.358;2023-08-30T04:47:21;3.17;;;2.65;;
68196;SDS011;55019;49.382;11.358;2023-08-30T04:49:51;4.15;;;3.20;;
68196;SDS011;55019;49.382;11.358;2023-08-30T04:52:17;4.72;;;3.28;;
68196;SDS011;55019;49.382;11.358;2023-08-30T04:54:43;4.75;;;3.92;;
68196;SDS011;55019;49.382;11.358;2023-08-30T04:57:12;5.18;;;4.18;;
68196;SDS011;55019;49.382;11.358;2023-08-30T04:59:42;7.32;;;5.28;;
68196;SDS011;55019;49.382;11.358;2023-08-30T05:02:10;6.70;;;4.85;;
68196;SDS011;55019;49.382;11.358;2023-08-30T05:04:43;6.57;;;4.93;;
68196;SDS011;55019;49.382;11.358;2023-08-30T05:07:09;7.05;;;4.78;;
68196;SDS011;55019;49.382;11.358;2023-08-30T05:09:36;8.10;;;5.60;;
68196;SDS011;55019;49.382;11.358;2023-08-30T05:12:03;7.10;;;4.82;;
68196;SDS011;55019;49.382;11.358;2023-08-30T05:14:30;6.05;;;4.70;;
68196;SDS011;55019;49.382;11.358;2023-08-30T05:16:56;6.88;;;5.05;;
68196;SDS011;55019;49.382;11.358;2023-08-30T05:19:23;5.85;;;4.75;;
68196;SDS011;55019;49.382;11.358;2023-08-30T05:21:49;6.80;;;5.00;;
68196;SDS011;55019;49.382;11.358;2023-08-30T05:24:20;7.00;;;4.85;;
68196;SDS011;55019;49.382;11.358;2023-08-30T05:26:48;7.75;;;5.20;;
68196;SDS011;55019;49.382;11.358;2023-08-30T05:29:15;7.13;;;5.00;;
68196;SDS011;55019;49.382;11.358;2023-08-30T05:31:42;6.20;;;4.82;;
68196;SDS011;55019;49.382;11.358;2023-08-30T05:34:24;5.68;;;4.55;;
68196;SDS011;55019;49.382;11.358;2023-08-30T05:37:06;6.90;;;4.80;;
68196;SDS011;55019;49.382;11.358;2023-08-30T05:39:52;7.22;;;5.13;;
68196;SDS011;55019;49.382;11.358;2023-08-30T05:42:18;11.75;;;6.10;;
68196;SDS011;55019;49.382;11.358;2023-08-30T05:44:44;8.93;;;5.07;;
68196;SDS011;55019;49.382;11.358;2023-08-30T05:47:10;7.70;;;5.18;;
68196;SDS011;55019;49.382;11.358;2023-08-30T05:49:40;7.10;;;5.15;;
68196;SDS011;55019;49.382;11.358;2023-08-30T05:52:06;6.95;;;5.40;;
68196;SDS011;55019;49.382;11.358;2023-08-30T05:54:32;7.60;;;5.35;;
68196;SDS011;55019;49.382;11.358;2023-08-30T05:56:59;8.38;;;5.68;;
68196;SDS011;55019;49.382;11.358;2023-08-30T05:59:26;7.68;;;5.10;;
68196;SDS011;55019;49.382;11.358;2023-08-30T06:01:53;8.43;;;6.18;;
68196;SDS011;55019;49.382;11.358;2023-08-30T06:04:19;9.85;;;5.75;;
68196;SDS011;55019;49.382;11.358;2023-08-30T06:06:45;8.35;;;6.13;;
68196;SDS011;55019;49.382;11.358;2023-08-30T06:09:11;8.55;;;6.03;;
68196;SDS011;55019;49.382;11.358;2023-08-30T06:11:40;7.18;;;5.68;;
68196;SDS011;55019;49.382;11.358;2023-08-30T06:14:05;7.70;;;5.70;;
68196;SDS011;55019;49.382;11.358;2023-08-30T06:16:31;9.30;;;6.68;;
68196;SDS011;55019;49.382;11.358;2023-08-30T06:18:58;7.85;;;6.45;;
68196;SDS011;55019;49.382;11.358;2023-08-30T06:21:25;8.07;;;5.55;;
68196;SDS011;55019;49.382;11.358;2023-08-30T06:23:54;10.05;;;6.72;;
68196;SDS011;55019;49.382;11.358;2023-08-30T06:26:23;8.13;;;5.82;;
68196;SDS011;55019;49.382;11.358;2023-08-30T06:28:49;7.30;;;5.75;;
68196;SDS011;55019;49.382;11.358;2023-08-30T06:31:15;9.15;;;6.05;;
68196;SDS011;55019;49.382;11.358;2023-08-30T06:33:41;9.88;;;6.90;;
68196;SDS011;55019;49.382;11.358;2023-08-30T06:36:07;9.07;;;6.53;;
68196;SDS011;55019;49.382;11.358;2023-08-30T06:38:34;10.43;;;6.75;;
68196;SDS011;55019;49.382;11.358;2023-08-30T06:41:00;9.63;;;7.03;;
68196;SDS011;55019;49.382;11.358;2023-08-30T06:43:26;10.18;;;6.97;;
68196;SDS011;55019;49.382;11.358;2023-08-30T06:45:52;9.90;;;6.65;;
68196;SDS011;55019;49.382;11.358;2023-08-30T06:48:18;10.43;;;6.57;;
68196;SDS011;55019;49.382;11.358;2023-08-30T06:50:44;10.05;;;7.18;;
68196;SDS011;55019;49.382;11.358;2023-08-30T06:53:10;11.98;;;7.13;;
68196;SDS011;55019;49.382;11.358;2023-08-30T06:55:36;10.98;;;7.22;;
68196;SDS011;55019;49.382;11.358;2023-08-30T06:58:03;9.93;;;7.00;;
68196;SDS011;55019;49.382;11.358;2023-08-30T07:00:30;11.40;;;7.60;;
68196;SDS011;55019;49.382;11.358;2023-08-30T07:02:56;11.75;;;7.93;;
68196;SDS011;55019;49.382;11.358;2023-08-30T07:05:22;13.32;;;7.65;;
68196;SDS011;55019;49.382;11.358;2023-08-30T07:07:48;12.48;;;7.57;;
68196;SDS011;55019;49.382;11.358;2023-08-30T07:10:14;12.90;;;8.23;;
68196;SDS011;55019;49.382;11.358;2023-08-30T07:12:40;13.18;;;7.80;;
68196;SDS011;55019;49.382;11.358;2023-08-30T07:15:06;13.05;;;7.40;;
68196;SDS011;55019;49.382;11.358;2023-08-30T07:17:32;12.15;;;7.85;;
68196;SDS011;55019;49.382;11.358;2023-08-30T07:19:58;12.48;;;7.65;;
68196;SDS011;55019;49.382;11.358;2023-08-30T07:22:24;12.75;;;8.05;;
68196;SDS011;55019;49.382;11.358;2023-08-30T07:24:50;10.43;;;7.40;;
68196;SDS011;55019;49.382;11.358;2023-08-30T07:27:16;12.88;;;7.78;;
68196;SDS011;55019;49.382;11.358;2023-08-30T07:29:42;10.82;;;7.43;;
68196;SDS011;55019;49.382;11.358;2023-08-30T07:32:09;12.02;;;7.95;;
68196;SDS011;55019;49.382;11.358;2023-08-30T07:34:35;13.02;;;7.13;;
68196;SDS011;55019;49.382;11.358;2023-08-30T07:37:01;12.20;;;7.32;;
68196;SDS011;55019;49.382;11.358;2023-08-30T07:39:27;11.75;;;7.22;;
68196;SDS011;55019;49.382;11.358;2023-08-30T07:41:53;12.27;;;8.13;;
68196;SDS011;55019;49.382;11.358;2023-08-30T07:44:18;12.80;;;8.25;;
68196;SDS011;55019;49.382;11.358;2023-08-30T07:46:45;11.52;;;7.20;;
68196;SDS011;55019;49.382;11.358;2023-08-30T07:49:11;11.07;;;7.53;;
68196;SDS011;55019;49.382;11.358;2023-08-30T07:51:37;11.25;;;7.22;;
68196;SDS011;55019;49.382;11.358;2023-08-30T07:54:03;12.30;;;7.35;;
68196;SDS011;55019;49.382;11.358;2023-08-30T07:56:29;13.75;;;7.93;;
68196;SDS011;55019;49.382;11.358;2023-08-30T07:58:56;11.48;;;7.60;;
68196;SDS011;55019;49.382;11.358;2023-08-30T08:01:22;10.20;;;6.82;;
68196;SDS011;55019;49.382;11.358;2023-08-30T08:03:48;10.15;;;7.32;;
68196;SDS011;55019;49.382;11.358;2023-08-30T08:06:13;11.90;;;7.65;;
68196;SDS011;55019;49.382;11.358;2023-08-30T08:08:39;12.15;;;7.60;;
68196;SDS011;55019;49.382;11.358;2023-08-30T08:11:05;11.73;;;7.70;;
68196;SDS011;55019;49.382;11.358;2023-08-30T08:13:31;10.10;;;6.93;;
68196;SDS011;55019;49.382;11.358;2023-08-30T08:15:56;11.30;;;7.13;;
68196;SDS011;55019;49.382;11.358;2023-08-30T08:18:23;9.88;;;6.95;;
68196;SDS011;55019;49.382;11.358;2023-08-30T08:20:48;9.60;;;7.05;;
68196;SDS011;55019;49.382;11.358;2023-08-30T08:23:14;11.48;;;6.60;;
68196;SDS011;55019;49.382;11.358;2023-08-30T08:25:40;9.98;;;7.32;;
68196;SDS011;55019;49.382;11.358;2023-08-30T08:28:05;8.82;;;6.68;;
68196;SDS011;55019;49.382;11.358;2023-08-30T08:30:32;10.80;;;7.20;;
68196;SDS011;55019;49.382;11.358;2023-08-30T08:32:58;9.65;;;7.20;;
68196;SDS011;55019;49.382;11.358;2023-08-30T08:35:26;10.40;;;7.03;;
68196;SDS011;55019;49.382;11.358;2023-08-30T08:49:17;10.27;;;7.80;;
68196;SDS011;55019;49.382;11.358;2023-08-30T08:51:43;9.40;;;7.43;;
68196;SDS011;55019;49.382;11.358;2023-08-30T08:54:10;9.63;;;7.85;;
68196;SDS011;55019;49.382;11.358;2023-08-30T08:56:37;12.25;;;7.50;;
68196;SDS011;55019;49.382;11.358;2023-08-30T08:59:03;9.55;;;7.00;;
68196;SDS011;55019;49.382;11.358;2023-08-30T09:01:33;9.18;;;7.47;;
68196;SDS011;55019;49.382;11.358;2023-08-30T09:06:29;10.82;;;7.00;;
68196;SDS011;55019;49.382;11.358;2023-08-30T09:08:55;9.85;;;7.50;;
68196;SDS011;55019;49.382;11.358;2023-08-30T09:11:20;9.63;;;6.55;;
68196;SDS011;55019;49.382;11.358;2023-08-30T09:13:46;8.40;;;6.30;;
68196;SDS011;55019;49.382;11.358;2023-08-30T09:16:15;9.23;;;6.28;;
68196;SDS011;55019;49.382;11.358;2023-08-30T09:18:41;7.93;;;6.38;;
68196;SDS011;55019;49.382;11.358;2023-08-30T09:21:10;8.27;;;6.45;;
68196;SDS011;55019;49.382;11.358;2023-08-30T09:23:37;8.40;;;6.20;;
68196;SDS011;55019;49.382;11.358;2023-08-30T09:26:03;8.45;;;6.25;;
68196;SDS011;55019;49.382;11.358;2023-08-30T09:28:30;7.85;;;5.72;;
68196;SDS011;55019;49.382;11.358;2023-08-30T09:30:59;7.82;;;5.38;;
68196;SDS011;55019;49.382;11.358;2023-08-30T09:33:29;6.70;;;6.10;;
68196;SDS011;55019;49.382;11.358;2023-08-30T09:35:59;5.70;;;5.10;;
68196;SDS011;55019;49.382;11.358;2023-08-30T09:38:26;5.53;;;5.00;;
68196;SDS011;55019;49.382;11.358;2023-08-30T09:40:52;5.97;;;5.40;;
68196;SDS011;55019;49.382;11.358;2023-08-30T09:43:27;5.78;;;5.03;;
68196;SDS011;55019;49.382;11.358;2023-08-30T09:45:53;6.28;;;5.30;;
68196;SDS011;55019;49.382;11.358;2023-08-30T09:48:21;4.82;;;4.32;;
68196;SDS011;55019;49.382;11.358;2023-08-30T09:50:49;4.78;;;4.35;;
68196;SDS011;55019;49.382;11.358;2023-08-30T09:53:18;4.85;;;4.03;;
68196;SDS011;55019;49.382;11.358;2023-08-30T09:55:51;5.00;;;4.50;;
68196;SDS011;55019;49.382;11.358;2023-08-30T09:58:18;6.45;;;4.05;;
68196;SDS011;55019;49.382;11.358;2023-08-30T10:00:46;4.90;;;3.85;;
68196;SDS011;55019;49.382;11.358;2023-08-30T10:03:13;4.82;;;3.70;;
68196;SDS011;55019;49.382;11.358;2023-08-30T10:05:42;4.25;;;3.85;;
68196;SDS011;55019;49.382;11.358;2023-08-30T10:08:08;3.72;;;3.28;;
68196;SDS011;55019;49.382;11.358;2023-08-30T10:10:34;3.75;;;3.45;;
68196;SDS011;55019;49.382;11.358;2023-08-30T10:13:01;4.97;;;3.70;;
68196;SDS011;55019;49.382;11.358;2023-08-30T10:15:27;4.45;;;3.92;;
68196;SDS011;55019;49.382;11.358;2023-08-30T10:17:58;7.43;;;4.03;;
68196;SDS011;55019;49.382;11.358;2023-08-30T10:20:26;5.38;;;3.38;;
68196;SDS011;55019;49.382;11.358;2023-08-30T10:22:53;4.78;;;3.22;;
68196;SDS011;55019;49.382;11.358;2023-08-30T10:25:21;3.88;;;3.45;;
68196;SDS011;55019;49.382;11.358;2023-08-30T10:27:51;4.90;;;3.28;;
68196;SDS011;55019;49.382;11.358;2023-08-30T10:30:18;4.35;;;3.20;;
68196;SDS011;55019;49.382;11.358;2023-08-30T10:32:45;3.78;;;3.15;;
68196;SDS011;55019;49.382;11.358;2023-08-30T10:35:15;3.20;;;2.85;;
68196;SDS011;55019;49.382;11.358;2023-08-30T10:37:53;3.92;;;2.45;;
68196;SDS011;55019;49.382;11.358;2023-08-30T10:40:22;4.50;;;3.22;;
68196;SDS011;55019;49.382;11.358;2023-08-30T10:43:03;4.57;;;3.60;;
68196;SDS011;55019;49.382;11.358;2023-08-30T10:45:30;4.35;;;3.38;;
68196;SDS011;55019;49.382;11.358;2023-08-30T10:47:56;3.88;;;3.30;;
68196;SDS011;55019;49.382;11.358;2023-08-30T10:52:58;5.05;;;4.25;;
68196;SDS011;55019;49.382;11.358;2023-08-30T10:55:24;3.92;;;3.47;;
68196;SDS011;55019;49.382;11.358;2023-08-30T10:58:00;4.15;;;3.75;;
68196;SDS011;55019;49.382;11.358;2023-08-30T11:00:28;4.28;;;3.75;;
68196;SDS011;55019;49.382;11.358;2023-08-30T11:02:56;4.53;;;3.70;;
68196;SDS011;55019;49.382;11.358;2023-08-30T11:05:23;5.00;;;3.80;;
68196;SDS011;55019;49.382;11.358;2023-08-30T11:07:49;4.55;;;3.47;;
68196;SDS011;55019;49.382;11.358;2023-08-30T11:10:16;4.07;;;3.67;;
68196;SDS011;55019;49.382;11.358;2023-08-30T11:12:43;4.70;;;4.15;;
68196;SDS011;55019;49.382;11.358;2023-08-30T11:17:36;3.80;;;3.40;;
68196;SDS011;55019;49.382;11.358;2023-08-30T11:20:09;5.90;;;4.25;;
68196;SDS011;55019;49.382;11.358;2023-08-30T11:22:45;4.72;;;3.72;;
68196;SDS011;55019;49.382;11.358;2023-08-30T11:25:12;4.72;;;3.83;;
68196;SDS011;55019;49.382;11.358;2023-08-30T11:27:40;6.30;;;4.53;;
68196;SDS011;55019;49.382;11.358;2023-08-30T11:30:06;4.47;;;3.67;;
68196;SDS011;55019;49.382;11.358;2023-08-30T11:32:34;6.03;;;4.90;;
68196;SDS011;55019;49.382;11.358;2023-08-30T11:35:04;6.72;;;5.15;;
68196;SDS011;55019;49.382;11.358;2023-08-30T11:37:31;4.30;;;3.83;;
68196;SDS011;55019;49.382;11.358;2023-08-30T11:39:57;5.03;;;4.35;;
68196;SDS011;55019;49.382;11.358;2023-08-30T11:42:24;5.63;;;4.50;;
68196;SDS011;55019;49.382;11.358;2023-08-30T11:44:51;5.78;;;4.35;;
68196;SDS011;55019;49.382;11.358;2023-08-30T11:47:20;5.05;;;3.42;;
68196;SDS011;55019;49.382;11.358;2023-08-30T11:49:48;5.97;;;4.82;;
68196;SDS011;55019;49.382;11.358;2023-08-30T11:52:17;6.25;;;4.35;;
68196;SDS011;55019;49.382;11.358;2023-08-30T11:54:44;4.78;;;4.03;;
68196;SDS011;55019;49.382;11.358;2023-08-30T11:57:10;5.15;;;4.00;;
68196;SDS011;55019;49.382;11.358;2023-08-30T11:59:36;4.28;;;3.70;;
68196;SDS011;55019;49.382;11.358;2023-08-30T12:02:02;4.13;;;3.72;;
68196;SDS011;55019;49.382;11.358;2023-08-30T12:04:29;5.82;;;3.60;;
68196;SDS011;55019;49.382;11.358;2023-08-30T12:06:56;4.07;;;3.67;;
68196;SDS011;55019;49.382;11.358;2023-08-30T12:09:22;4.97;;;3.78;;
68196;SDS011;55019;49.382;11.358;2023-08-30T12:11:51;5.75;;;4.55;;
68196;SDS011;55019;49.382;11.358;2023-08-30T12:14:16;3.58;;;3.20;;
68196;SDS011;55019;49.382;11.358;2023-08-30T12:16:42;4.00;;;3.60;;
68196;SDS011;55019;49.382;11.358;2023-08-30T12:19:10;4.80;;;4.30;;
68196;SDS011;55019;49.382;11.358;2023-08-30T12:21:40;4.22;;;3.78;;
68196;SDS011;55019;49.382;11.358;2023-08-30T12:24:07;4.20;;;3.63;;
68196;SDS011;55019;49.382;11.358;2023-08-30T12:26:33;4.65;;;3.47;;
68196;SDS011;55019;49.382;11.358;2023-08-30T12:28:58;3.78;;;3.42;;
68196;SDS011;55019;49.382;11.358;2023-08-30T12:31:24;4.43;;;3.58;;
68196;SDS011;55019;49.382;11.358;2023-08-30T12:33:50;4.50;;;3.53;;
68196;SDS011;55019;49.382;11.358;2023-08-30T12:36:15;4.05;;;3.53;;
68196;SDS011;55019;49.382;11.358;2023-08-30T12:38:41;3.72;;;3.30;;
68196;SDS011;55019;49.382;11.358;2023-08-30T12:41:07;4.10;;;3.70;;
68196;SDS011;55019;49.382;11.358;2023-08-30T12:43:32;5.18;;;3.33;;
68196;SDS011;55019;49.382;11.358;2023-08-30T12:45:58;3.53;;;3.13;;
68196;SDS011;55019;49.382;11.358;2023-08-30T12:48:24;4.18;;;3.67;;
68196;SDS011;55019;49.382;11.358;2023-08-30T12:50:49;4.15;;;3.60;;
68196;SDS011;55019;49.382;11.358;2023-08-30T12:53:15;4.80;;;3.08;;
68196;SDS011;55019;49.382;11.358;2023-08-30T12:55:44;4.03;;;3.30;;
68196;SDS011;55019;49.382;11.358;2023-08-30T12:58:09;3.35;;;2.70;;
68196;SDS011;55019;49.382;11.358;2023-08-30T13:00:37;3.33;;;3.03;;
68196;SDS011;55019;49.382;11.358;2023-08-30T13:03:02;3.47;;;3.17;;
68196;SDS011;55019;49.382;11.358;2023-08-30T13:05:28;3.33;;;3.03;;
68196;SDS011;55019;49.382;11.358;2023-08-30T13:07:57;3.22;;;2.88;;
68196;SDS011;55019;49.382;11.358;2023-08-30T13:10:26;4.40;;;3.20;;
68196;SDS011;55019;49.382;11.358;2023-08-30T13:12:52;5.38;;;3.40;;
68196;SDS011;55019;49.382;11.358;2023-08-30T13:15:18;3.90;;;3.45;;
68196;SDS011;55019;49.382;11.358;2023-08-30T13:17:44;3.38;;;3.03;;
68196;SDS011;55019;49.382;11.358;2023-08-30T13:20:09;3.72;;;3.00;;
68196;SDS011;55019;49.382;11.358;2023-08-30T13:22:36;3.67;;;3.03;;
68196;SDS011;55019;49.382;11.358;2023-08-30T13:25:02;3.88;;;3.53;;
68196;SDS011;55019;49.382;11.358;2023-08-30T13:27:29;4.00;;;3.30;;
68196;SDS011;55019;49.382;11.358;2023-08-30T13:29:55;4.18;;;3.58;;
68196;SDS011;55019;49.382;11.358;2023-08-30T13:32:21;4.07;;;3.63;;
68196;SDS011;55019;49.382;11.358;2023-08-30T13:34:46;3.58;;;3.28;;
68196;SDS011;55019;49.382;11.358;2023-08-30T13:37:13;4.57;;;3.47;;
68196;SDS011;55019;49.382;11.358;2023-08-30T13:39:39;3.50;;;3.20;;
68196;SDS011;55019;49.382;11.358;2023-08-30T13:42:05;3.05;;;2.63;;
68196;SDS011;55019;49.382;11.358;2023-08-30T13:44:31;3.20;;;2.90;;
68196;SDS011;55019;49.382;11.358;2023-08-30T13:46:57;3.80;;;3.17;;
68196;SDS011;55019;49.382;11.358;2023-08-30T13:49:23;4.10;;;3.13;;
68196;SDS011;55019;49.382;11.358;2023-08-30T13:51:49;3.33;;;2.90;;
68196;SDS011;55019;49.382;11.358;2023-08-30T13:54:14;3.35;;;2.88;;
68196;SDS011;55019;49.382;11.358;2023-08-30T13:56:40;3.72;;;3.03;;
68196;SDS011;55019;49.382;11.358;2023-08-30T13:59:09;3.25;;;2.95;;
68196;SDS011;55019;49.382;11.358;2023-08-30T14:01:34;3.40;;;3.10;;
68196;SDS011;55019;49.382;11.358;2023-08-30T14:04:03;3.03;;;2.63;;
68196;SDS011;55019;49.382;11.358;2023-08-30T14:06:32;3.15;;;2.85;;
68196;SDS011;55019;49.382;11.358;2023-08-30T14:08:58;4.30;;;2.85;;
68196;SDS011;55019;49.382;11.358;2023-08-30T14:11:26;2.53;;;2.33;;
68196;SDS011;55019;49.382;11.358;2023-08-30T14:13:52;2.75;;;2.47;;
68196;SDS011;55019;49.382;11.358;2023-08-30T14:16:17;3.08;;;2.80;;
68196;SDS011;55019;49.382;11.358;2023-08-30T14:18:43;2.33;;;2.13;;
68196;SDS011;55019;49.382;11.358;2023-08-30T14:21:09;3.10;;;2.80;;
68196;SDS011;55019;49.382;11.358;2023-08-30T14:23:35;3.20;;;2.30;;
68196;SDS011;55019;49.382;11.358;2023-08-30T14:26:03;3.28;;;2.63;;
68196;SDS011;55019;49.382;11.358;2023-08-30T14:28:38;3.30;;;2.30;;
68196;SDS011;55019;49.382;11.358;2023-08-30T14:31:07;2.60;;;2.00;;
68196;SDS011;55019;49.382;11.358;2023-08-30T14:33:36;2.42;;;2.22;;
68196;SDS011;55019;49.382;11.358;2023-08-30T14:36:03;2.67;;;2.33;;
68196;SDS011;55019;49.382;11.358;2023-08-30T14:38:34;2.50;;;2.30;;
68196;SDS011;55019;49.382;11.358;2023-08-30T14:41:01;2.88;;;2.30;;
68196;SDS011;55019;49.382;11.358;2023-08-30T14:43:27;3.67;;;2.50;;
68196;SDS011;55019;49.382;11.358;2023-08-30T14:46:04;2.42;;;2.22;;
68196;SDS011;55019;49.382;11.358;2023-08-30T14:48:31;1.95;;;1.77;;
68196;SDS011;55019;49.382;11.358;2023-08-30T14:50:58;2.63;;;2.25;;
68196;SDS011;55019;49.382;11.358;2023-08-30T14:53:24;2.50;;;2.22;;
68196;SDS011;55019;49.382;11.358;2023-08-30T14:55:50;3.33;;;2.17;;
68196;SDS011;55019;49.382;11.358;2023-08-30T14:58:15;2.60;;;2.40;;
68196;SDS011;55019;49.382;11.358;2023-08-30T15:00:41;2.80;;;2.22;;